Terminal Aerodrome Forecast
Issued by NWS Sterling, VA

Current Version | Previous Version | Text Only | Print | Product List | Glossary Off
Versions: 1 2 3 4 5 6 7 8 9 10 11 12 13 14 15 16 17 18 19 20 21 22 23 24 25 26 27 28

000
FTUS41 KLWX 242200 AAA
TAFIAD
TAF AMD
KIAD 242213Z 2422/2524 34007KT P6SM BKN150
     FM250200 36006KT P6SM SCT060
     FM252000 29004KT P6SM FEW045 FEW130=

USA.gov is the U.S. government's official web portal to all federal, state and local government web resources and services.